메인 페이지
METAR-TAF:

METAR-TAF

공항 :

타히티, 프랑스령 폴리네시아

파아아 국제공항

위도: 17-33S, 경도: 149-37W, 고도: 2m

현재 날씨관측

예보는 30분 전, 15:30시(UTC)에 발표되었습니다.
12kt
온도 26°C
습도 70%
기압 1009 hPa
시정 10km 이상

METAR: NTAA 191530Z AUTO 08012KT 9999 NCD 26/20 Q1009

시각: 06:00 (16:00 UTC)

예보

예보는 5 시간 0분 전, 11:00시(UTC)에 발표되었습니다.
예보 대상 시간: 19일 12시부터 20일 18시까지 (UTC)
북동10kt
시정 10km 이상
고도 1400ft 상공 구름 조금, 적란운.
고도 1800ft 상공 구름 보통
고도 4500ft 상공 구름 많음
일시적
19일 12시부터 19일 24시까지 (UTC)
북동15kt, 순간 최대 풍속 25kt
시정: 1400m
강한소나기
전환 중
20일 00시부터 20일 02시까지 (UTC)
고도 2000ft 상공 구름 보통
고도 5000ft 상공 구름 보통
고도 30000ft 상공 구름 많음

TAF: NTAA 191100Z 1912/2018 04010KT 9999 FEW014CB SCT018 BKN045 TEMPO 1912/1924 04015G25KT 1400 +SHRA BECMG 2000/2002 SCT020 SCT050 BKN300

4,000개 이상의 공항 관측 자료 및 예보 (METAR 및 TAF 보고).

지도상에서 검색 가능한 기상관측소가 노란 점과 빨간 점으로 표시되어 있습니다.

기상관측소 명을 보려면 표시 위로 마우스를 이동하세요.

날씨 관측과 예보를 보려면 클릭하세요.

지도 변경 : 확대하려면 엑스 표시가 있는 녹색 버튼, 축소하려면 빼기 표시가 있는 녹색 버튼, 다음 페이지의 지도를 보려면 녹색 화살표를 클릭하세요.


METAR-TAF: